createdAt,value
2024-04-08T00:00:43.502Z,15.45
2024-04-08T00:05:46.562Z,7.43
2024-04-08T00:10:49.557Z,11.65
2024-04-08T00:16:00.201Z,9.60
2024-04-08T00:21:07.255Z,10.43
2024-04-08T00:26:10.614Z,6.68
2024-04-08T00:31:14.817Z,8.03
2024-04-08T00:36:17.883Z,10.50
2024-04-08T00:41:20.850Z,9.43
2024-04-08T00:46:24.964Z,9.68
2024-04-08T00:51:28.646Z,16.38
2024-04-08T00:56:31.927Z,15.70
2024-04-08T01:01:35.445Z,18.20
2024-04-08T01:06:38.997Z,16.42
2024-04-08T01:11:44.716Z,9.55
2024-04-08T01:16:48.742Z,15.45
2024-04-08T01:21:52.320Z,16.27
2024-04-08T01:26:55.220Z,13.13
2024-04-08T01:31:58.220Z,29.10
2024-04-08T01:37:01.708Z,21.80
2024-04-08T01:42:04.833Z,9.82
2024-04-08T01:47:08.657Z,14.98
2024-04-08T01:52:11.592Z,20.80
2024-04-08T01:57:14.514Z,52.63
2024-04-08T02:02:18.103Z,24.58
2024-04-08T02:07:21.000Z,30.97
2024-04-08T02:12:23.867Z,10.45
2024-04-08T02:17:27.743Z,8.25
2024-04-08T02:22:30.788Z,14.87
2024-04-08T02:27:34.204Z,5.88
2024-04-08T02:32:37.223Z,15.45
2024-04-08T02:37:40.104Z,9.27
2024-04-08T02:42:44.545Z,5.68
2024-04-08T02:52:50.446Z,12.48
2024-04-08T02:57:53.998Z,18.23
2024-04-08T03:02:56.956Z,5.55
2024-04-08T03:08:00.118Z,10.93
2024-04-08T03:13:03.212Z,12.20
2024-04-08T03:18:08.432Z,8.15
2024-04-08T03:23:11.339Z,9.40
2024-04-08T03:28:15.088Z,6.38
2024-04-08T03:33:23.355Z,12.00
2024-04-08T03:38:26.220Z,5.30
2024-04-08T03:43:30.071Z,8.82
2024-04-08T03:48:34.844Z,16.30
2024-04-08T03:53:38.095Z,20.80
2024-04-08T03:58:43.076Z,19.25
2024-04-08T04:03:45.976Z,29.05
2024-04-08T04:08:49.903Z,26.25
2024-04-08T04:13:53.238Z,16.27
2024-04-08T04:18:57.081Z,14.48
2024-04-08T04:24:00.035Z,11.88
2024-04-08T04:29:03.202Z,25.13
2024-04-08T04:34:06.127Z,17.40
2024-04-08T04:39:11.841Z,16.58
2024-04-08T04:44:14.940Z,7.88
2024-04-08T04:49:19.133Z,5.97
2024-04-08T04:54:21.955Z,10.70
2024-04-08T04:59:25.314Z,8.93
2024-04-08T05:04:28.381Z,19.55
2024-04-08T05:09:31.346Z,8.07
2024-04-08T05:14:35.542Z,16.05
2024-04-08T05:19:38.766Z,13.13
2024-04-08T05:24:41.640Z,10.32
2024-04-08T05:29:44.906Z,14.10
2024-04-08T05:34:47.806Z,4.32
2024-04-08T05:39:51.076Z,6.65
2024-04-08T05:44:57.698Z,15.63
2024-04-08T05:50:01.165Z,15.13
2024-04-08T05:55:06.054Z,10.77
2024-04-08T06:00:12.429Z,10.90
2024-04-08T06:05:15.475Z,10.55
2024-04-08T06:10:22.238Z,16.55
2024-04-08T06:15:25.770Z,9.02
2024-04-08T06:20:29.442Z,7.18
2024-04-08T06:25:33.790Z,8.73
2024-04-08T06:30:37.878Z,16.05
2024-04-08T06:35:48.529Z,14.10
2024-04-08T06:40:51.904Z,6.70
2024-04-08T06:46:02.908Z,18.17
2024-04-08T06:51:06.241Z,26.40
2024-04-08T06:56:10.088Z,21.55
2024-04-08T07:01:14.039Z,5.10
2024-04-08T07:06:17.256Z,9.65
2024-04-08T07:11:20.257Z,17.20
2024-04-08T07:16:23.424Z,9.23
2024-04-08T07:21:26.489Z,14.82
2024-04-08T07:26:30.582Z,9.02
2024-04-08T07:31:34.762Z,9.10
2024-04-08T07:36:37.951Z,9.70
2024-04-08T07:41:41.029Z,17.70
2024-04-08T07:46:44.353Z,20.15
2024-04-08T07:51:47.271Z,8.80
2024-04-08T07:56:50.317Z,8.43
2024-04-08T08:01:53.700Z,43.80
2024-04-08T08:06:56.689Z,6.85
2024-04-08T08:11:59.738Z,10.73
2024-04-08T08:17:04.130Z,20.08
2024-04-08T08:22:08.563Z,9.50
2024-04-08T08:27:11.446Z,10.45
2024-04-08T08:32:15.418Z,13.73
2024-04-08T08:37:18.428Z,17.92
2024-04-08T08:42:23.239Z,10.50
2024-04-08T08:47:26.238Z,20.55
2024-04-08T08:52:29.731Z,11.55
2024-04-08T08:57:33.765Z,11.52
2024-04-08T09:02:39.641Z,13.25
2024-04-08T09:07:42.754Z,20.17
2024-04-08T09:12:46.105Z,31.38
2024-04-08T09:17:49.295Z,8.65
2024-04-08T09:22:52.228Z,15.57
2024-04-08T09:27:56.004Z,10.93
2024-04-08T09:32:59.456Z,23.20
2024-04-08T09:38:04.081Z,24.38
2024-04-08T09:43:08.791Z,17.27
2024-04-08T09:48:15.130Z,12.43
2024-04-08T09:53:18.578Z,29.33
2024-04-08T09:58:23.388Z,44.75
2024-04-08T10:03:27.237Z,16.15
2024-04-08T10:08:30.490Z,34.47
2024-04-08T10:13:33.715Z,12.30
2024-04-08T10:18:53.472Z,22.05
2024-04-08T10:23:56.783Z,15.15
2024-04-08T10:29:00.173Z,18.50
2024-04-08T10:34:03.200Z,11.88
2024-04-08T10:39:10.901Z,20.38
2024-04-08T10:44:14.225Z,24.60
2024-04-08T10:49:17.815Z,27.48
2024-04-08T10:54:20.955Z,24.23
2024-04-08T10:59:24.461Z,23.98
2024-04-08T11:04:29.990Z,20.60
2024-04-08T11:09:32.840Z,13.93
2024-04-08T11:14:36.469Z,19.92
2024-04-08T11:19:41.295Z,26.13
2024-04-08T11:24:44.490Z,17.00
2024-04-08T11:29:47.951Z,25.67
2024-04-08T11:34:51.899Z,20.55
2024-04-08T11:39:54.782Z,32.00
2024-04-08T11:45:06.916Z,45.22
2024-04-08T11:50:11.755Z,28.48
2024-04-08T11:55:14.682Z,20.58
2024-04-08T12:00:22.453Z,21.58
2024-04-08T12:05:25.585Z,19.75
2024-04-08T12:10:28.470Z,25.52
2024-04-08T12:15:31.625Z,48.35
2024-04-08T12:20:34.765Z,18.35
2024-04-08T12:25:38.273Z,19.00
2024-04-08T12:30:44.246Z,21.58
2024-04-08T12:35:47.896Z,20.48
2024-04-08T12:40:51.689Z,14.00
2024-04-08T12:45:56.686Z,33.25
2024-04-08T12:50:59.784Z,12.10
2024-04-08T12:56:05.000Z,12.98
2024-04-08T13:01:08.577Z,16.45
2024-04-08T13:06:12.101Z,23.15
2024-04-08T13:11:16.727Z,22.02
2024-04-08T13:16:20.682Z,35.42
2024-04-08T13:21:27.739Z,22.08
2024-04-08T13:26:33.593Z,21.50
2024-04-08T13:31:36.855Z,26.33
2024-04-08T13:36:39.766Z,21.75
2024-04-08T13:41:42.698Z,29.00
2024-04-08T13:46:46.018Z,20.90
2024-04-08T13:51:59.494Z,34.20
2024-04-08T13:57:02.775Z,27.75
2024-04-08T14:02:07.043Z,24.70
2024-04-08T14:07:10.130Z,19.38
2024-04-08T14:12:13.088Z,14.07
2024-04-08T14:17:18.785Z,18.40
2024-04-08T14:22:23.891Z,16.85
2024-04-08T14:27:26.842Z,15.20
2024-04-08T14:32:30.243Z,15.18
2024-04-08T14:37:50.819Z,12.13
2024-04-08T14:42:57.254Z,13.13
2024-04-08T14:48:01.557Z,16.90
2024-04-08T14:53:05.773Z,21.75
2024-04-08T14:58:09.341Z,32.15
2024-04-08T15:03:13.475Z,16.50
2024-04-08T15:08:18.562Z,15.68
2024-04-08T15:13:22.179Z,20.27
2024-04-08T15:18:26.973Z,28.50
2024-04-08T15:23:32.391Z,19.23
2024-04-08T15:33:38.814Z,16.77
2024-04-08T15:38:43.146Z,21.20
2024-04-08T15:43:46.672Z,31.63
2024-04-08T15:48:50.890Z,20.20
2024-04-08T15:53:54.172Z,15.27
2024-04-08T15:58:57.914Z,18.77
2024-04-08T16:04:01.265Z,26.58
2024-04-08T16:09:10.460Z,19.63
2024-04-08T16:14:13.790Z,21.88
2024-04-08T16:19:16.622Z,23.92
2024-04-08T16:24:20.157Z,21.20
2024-04-08T16:29:23.359Z,30.08
2024-04-08T16:34:26.408Z,26.33
2024-04-08T16:39:29.619Z,26.13
2024-04-08T16:44:34.382Z,37.38
2024-04-08T16:49:37.340Z,31.83
2024-04-08T16:54:42.797Z,29.55
2024-04-08T16:59:45.829Z,18.45
2024-04-08T17:04:49.059Z,22.20
2024-04-08T17:09:52.191Z,32.88
2024-04-08T17:14:55.526Z,27.95
2024-04-08T17:19:58.311Z,20.52
2024-04-08T17:25:01.535Z,27.88
2024-04-08T17:30:07.792Z,24.17
2024-04-08T17:35:10.916Z,26.95
2024-04-08T17:40:13.774Z,39.13
2024-04-08T17:45:17.269Z,20.67
2024-04-08T17:50:21.387Z,45.35
2024-04-08T17:55:25.504Z,40.60
2024-04-08T18:00:28.588Z,31.00
2024-04-08T18:05:31.869Z,36.22
2024-04-08T18:10:35.056Z,45.20
2024-04-08T18:15:39.036Z,37.45
2024-04-08T18:20:42.630Z,36.80
2024-04-08T18:25:55.424Z,34.30
2024-04-08T18:31:11.700Z,38.50
2024-04-08T18:36:15.923Z,49.13
2024-04-08T18:41:22.212Z,39.60
2024-04-08T18:46:26.652Z,35.90
2024-04-08T18:51:29.839Z,40.13
2024-04-08T18:56:32.828Z,48.83
2024-04-08T19:01:36.599Z,37.40
2024-04-08T19:06:39.737Z,44.28
2024-04-08T19:11:48.338Z,44.50
2024-04-08T19:16:58.569Z,46.70
2024-04-08T19:22:01.679Z,57.90
2024-04-08T19:27:04.938Z,47.67
2024-04-08T19:32:08.433Z,103.45
2024-04-08T19:37:11.602Z,42.28
2024-04-08T19:42:14.831Z,58.08
2024-04-08T19:47:18.367Z,66.45
2024-04-08T19:52:21.971Z,49.25
2024-04-08T19:57:25.115Z,57.25
2024-04-08T20:02:28.246Z,75.35
2024-04-08T20:07:31.301Z,161.32
2024-04-08T20:12:34.356Z,139.25
2024-04-08T20:17:37.975Z,104.57
2024-04-08T20:22:40.961Z,86.38
2024-04-08T20:27:43.953Z,63.75
2024-04-08T20:32:47.215Z,45.42
2024-04-08T20:37:50.190Z,47.60
2024-04-08T20:42:53.833Z,31.13
2024-04-08T20:47:57.623Z,30.70
2024-04-08T20:53:00.564Z,31.30
2024-04-08T20:58:05.914Z,37.45
2024-04-08T21:08:12.338Z,24.08
2024-04-08T21:13:15.875Z,26.75
2024-04-08T21:18:18.927Z,24.48
2024-04-08T21:23:22.273Z,17.95
2024-04-08T21:28:26.131Z,20.48
2024-04-08T21:33:29.137Z,22.50
2024-04-08T21:38:32.341Z,20.27
2024-04-08T21:43:36.019Z,19.70
2024-04-08T21:48:39.499Z,15.85
2024-04-08T21:53:42.696Z,20.42
2024-04-08T21:58:46.597Z,21.95
2024-04-08T22:03:52.541Z,19.20
2024-04-08T22:08:55.524Z,18.58
2024-04-08T22:13:58.562Z,17.20
2024-04-08T22:19:02.095Z,16.13
2024-04-08T22:24:05.207Z,19.08
2024-04-08T22:29:08.573Z,16.90
2024-04-08T22:34:12.042Z,13.30
2024-04-08T22:39:15.495Z,22.02
2024-04-08T22:44:19.325Z,17.25
2024-04-08T22:49:22.523Z,17.40
2024-04-08T22:54:25.437Z,14.60
2024-04-08T22:59:29.790Z,15.48
2024-04-08T23:04:33.017Z,18.77
2024-04-08T23:09:36.013Z,15.65
2024-04-08T23:14:39.439Z,14.15
2024-04-08T23:19:42.391Z,20.52
2024-04-08T23:24:45.772Z,22.98
2024-04-08T23:29:51.889Z,14.05
2024-04-08T23:34:56.725Z,17.45
2024-04-08T23:39:59.844Z,14.82
2024-04-08T23:45:02.967Z,21.55
2024-04-08T23:50:08.104Z,23.42
2024-04-08T23:55:11.209Z,20.35
